Aeroporto :
LOGIN :

Iscrizione | Disclaimer

   EN    FR    IT 

 










Sommario :    VFR   VFR Marginale   IFR   IFR Intensivo   IFR Molto Intensivo
Visibilità : 
Base nubi : 
>= 8 km
>= 3000ft
5 / 8 km
1000 / 3000 ft
1500m / 5 km
500 / 1000 ft
800 / 1500m
200 / 500 ft
< 800m
< 200 ft
Simboli :   Temporali  Nebbia  Neve Forte  Precipitazioni Forti  Vento > 20 kt
SIGMETs :   Varie  Temporali  Ghiacco  Turbolenza  Onda orograficha  Ceneri Vulcaniche






- Altitudine del aeroporto : 49 ft
- Codice IATA : GLZ


EHGR - Gilze-Rijen Airbase

ULTIMO METAR :
  • 280635Z AUTO 25014G24KT 220V290 9999 -RA FEW010 BKN030 OVC035 05/03 Q0989 BLU

METARs OBSOLETI :
  • 280626Z AUTO 24014G26KT 190V280 9999 -SHRA FEW009 BKN010 BKN013 05/04 Q0989 GRN
  • 280625Z AUTO 23015G27KT 160V260 9999 SHRA FEW008 SCT010 BKN013 FEW015CB 06/04 Q0988 REDZ GRN
  • 280559Z AUTO 19013KT 140V230 9999 FEW010 FEW015CB BKN022 BKN026 07/04 Q0988 WHT
  • 280555Z AUTO 19013KT 140V230 9999 FEW010 SCT023 BKN027 07/04 Q0988 WHT
  • 280525Z AUTO 20010KT 160V240 9999 BKN017 BKN020 BKN030 07/05 Q0989 WHT
  • 280455Z AUTO 19010KT 150V230 9999 BKN018 OVC022 06/05 Q0990 WHT
  • 280425Z AUTO 19011KT 150V230 9999 -DZ SCT018 BKN021 OVC025 06/05 Q0990 WHT
  • 280415Z AUTO 19011KT 150V230 9999 SCT020 BKN025 BKN045 06/05 Q0990 WHT
  • 280355Z AUTO 20009KT 160V240 9999 FEW023 SCT037 BKN046 06/05 Q0991 BLU

TAF TAF EHGR
Valido dal 28 a 06 ore il 28 a 18 ore UTC


280531Z 2806/2818 22015G25KT 9999 SCT020 BKN030
BECMG 2807/2809 26015G28KT
PROB30
TEMPO 2806/2818 26020G35KT 3500 SHRA TSRAGS SCT008 SCT015CB BKN020



MetMap, La meteo Aeronautica in un colpo d'occhio ! - Copyright ORBIFLY Dicembre 2007 - Disclaimer

ORBIFLY MET'MAP TEAM :

Programmazione e sviluppo : Alexandra Zaïnal
Concezione : Baudouin d'Aumeries
Aiuto per la programmazione : Marc-Olivier Méhu
Supporto tecnico e logistico : Manuel Goepfert
Aiuto per la traduzione : Arnaldo La Scala

Contatto : metmap@orbifly.com




FONTI E CREDITI :

   NOAA